Decoded Metar for FAOR (TAMBO INTL AIRPT in SOUTH AFRICA) (IATA:JNB) | Meteo·Mobile Aviation Weather
aviador You're here:

FAOR Decoded Metar

TAMBO INTL AIRPT in SOUTH AFRICA
Report Time2019-03-23 21:00:00
UTC Time2019-03-23 21:40:06
Flight Rules vfr VFR
Wind010° at 10 kt
W.Rank010° ranks 7
Current wind is above 010° avg. (9.2)
Visibility9999 m
Phenomena:N/A
Clouds:N/A
Expected CloudBase > 2,400 ft AGL from Temp-Dew spread
CeilingNone
Temp17°C (ISA +13)
Dew Point11°C (68% RH)
AAT13.7°C
QNH1026 hPa
Density Alt6,818 ft
Elevation5,550 ft
Report Wrong Elevation
Raw Report
METAR FAOR 232100Z 01010KT CAVOK 17/11 Q1026 NOSIG=

Extra information for FAOR:More info

Metar Taf Metar & Taf Last 4 Metars F.Rules Stats Wind Profile Meteogram Temp Stats Airport Information Weather charts Add Link Nearby VenuesMetar ALERT Operation Metar Decoded Social comments